createdAt,value
2018-06-30T00:00:17.382Z,54.59
2018-06-30T00:01:27.488Z,54.9
2018-06-30T00:02:37.287Z,55.09
2018-06-30T00:03:47.404Z,54.78
2018-06-30T00:04:57.476Z,55.16
2018-06-30T00:06:07.277Z,55.54
2018-06-30T00:07:17.394Z,55.35
2018-06-30T00:08:27.443Z,55.44
2018-06-30T00:09:37.506Z,55.63
2018-06-30T00:10:47.298Z,55.92
2018-06-30T00:11:57.385Z,55.63
2018-06-30T00:13:07.231Z,56.21
2018-06-30T00:14:17.009Z,56.49
2018-06-30T00:15:27.071Z,56.11
2018-06-30T00:16:36.867Z,55.92
2018-06-30T00:17:46.660Z,56.21
2018-06-30T00:18:56.246Z,56.3
2018-06-30T00:20:06.317Z,56.21
2018-06-30T00:21:16.114Z,56.97
2018-06-30T00:22:26.188Z,57.16
2018-06-30T00:23:36.239Z,57.07
2018-06-30T00:24:45.814Z,57.64
2018-06-30T00:25:55.873Z,57.45
2018-06-30T00:27:05.687Z,57.16
2018-06-30T00:28:15.744Z,57.35
2018-06-30T00:29:25.548Z,57.73
2018-06-30T00:30:35.692Z,57.73
2018-06-30T00:31:45.500Z,57.26
2018-06-30T00:32:55.548Z,57.35
2018-06-30T00:34:05.628Z,57.54
2018-06-30T00:35:15.428Z,58.59
2018-06-30T00:36:25.260Z,58.47
2018-06-30T00:37:35.333Z,58.94
2018-06-30T00:38:45.407Z,58.97
2018-06-30T00:39:55.470Z,59.06
2018-06-30T00:41:04.993Z,59.51
2018-06-30T00:42:15.109Z,60.11
2018-06-30T00:43:24.623Z,59.61
2018-06-30T00:44:34.419Z,60.78
2018-06-30T00:45:44.221Z,59.8
2018-06-30T00:46:54.269Z,60.66
2018-06-30T00:48:03.590Z,60.56
2018-06-30T00:49:13.642Z,60.94
2018-06-30T00:50:23.712Z,60.56
2018-06-30T00:51:33.773Z,60.46
2018-06-30T00:52:43.308Z,60.37
2018-06-30T00:53:53.150Z,60.66
2018-06-30T00:55:02.940Z,60.37
2018-06-30T00:56:12.740Z,60.56
2018-06-30T00:57:22.780Z,60.56
2018-06-30T00:58:32.581Z,61.13
2018-06-30T00:59:42.422Z,61.04
2018-06-30T01:00:52.488Z,60.66
2018-06-30T01:02:02.557Z,61.51
2018-06-30T01:03:11.818Z,61.32
2018-06-30T01:04:21.625Z,60.56
2018-06-30T01:05:31.471Z,59.99
2018-06-30T01:06:41.247Z,59.23
2018-06-30T01:07:50.764Z,59.03
2018-06-30T01:09:00.829Z,59.13
2018-06-30T01:10:10.623Z,58.75
2018-06-30T01:11:20.732Z,58.94
2018-06-30T01:12:30.521Z,59.13
2018-06-30T01:13:40.590Z,58.94
2018-06-30T01:14:50.657Z,59.42
2018-06-30T01:16:00.726Z,59.23
2018-06-30T01:17:10.843Z,59.03
2018-06-30T01:18:20.395Z,59.61
2018-06-30T01:19:30.180Z,59.61
2018-06-30T01:20:40.254Z,59.99
2018-06-30T01:21:50.039Z,59.13
2018-06-30T01:23:00.137Z,59.51
2018-06-30T01:24:10.191Z,59.89
2018-06-30T01:25:19.965Z,59.99
2018-06-30T01:26:29.747Z,59.8
2018-06-30T01:27:39.287Z,59.8
2018-06-30T01:28:49.420Z,59.7
2018-06-30T01:29:59.201Z,59.51
2018-06-30T01:31:09.004Z,59.96
2018-06-30T01:32:18.519Z,59.1
2018-06-30T01:33:28.579Z,59.29
2018-06-30T01:34:38.433Z,59.86
2018-06-30T01:35:48.217Z,59.77
2018-06-30T01:36:58.000Z,60.34
2018-06-30T01:38:07.543Z,60.82
2018-06-30T01:39:17.335Z,61.29
2018-06-30T01:40:27.441Z,60.44
2018-06-30T01:41:37.499Z,60.53
2018-06-30T01:42:46.750Z,61.1
2018-06-30T01:43:56.836Z,61.58
2018-06-30T01:45:06.655Z,61.48
2018-06-30T01:46:16.233Z,61.77
2018-06-30T01:47:26.022Z,61.77
2018-06-30T01:48:36.087Z,62.05
2018-06-30T01:49:45.873Z,61.48
2018-06-30T01:50:55.941Z,61.58
2018-06-30T01:52:05.773Z,61.67
2018-06-30T01:53:15.576Z,61.74
2018-06-30T01:54:25.637Z,61.74
2018-06-30T01:55:35.692Z,62.69
2018-06-30T01:56:45.744Z,62.4
2018-06-30T01:57:55.571Z,62.78
2018-06-30T01:59:05.633Z,62.78
2018-06-30T02:00:15.698Z,62.97
2018-06-30T02:01:25.789Z,62.78
2018-06-30T02:02:35.312Z,62.88
2018-06-30T02:03:45.196Z,63.73
2018-06-30T02:04:55.265Z,63.64
2018-06-30T02:06:05.325Z,64.21
2018-06-30T02:07:15.127Z,64.69
2018-06-30T02:08:24.656Z,64.59
2018-06-30T02:09:34.495Z,64.97
2018-06-30T02:10:44.598Z,64.78
2018-06-30T02:11:54.659Z,65.92
2018-06-30T02:13:04.183Z,66.02
2018-06-30T02:14:14.252Z,66.3
2018-06-30T02:15:24.369Z,66.78
2018-06-30T02:16:34.161Z,66.39
2018-06-30T02:17:43.951Z,66.11
2018-06-30T02:18:54.025Z,65.83
2018-06-30T02:20:03.832Z,66.39
2018-06-30T02:21:13.694Z,67.25
2018-06-30T02:22:23.209Z,67.63
2018-06-30T02:23:33.012Z,67.82
2018-06-30T02:24:43.069Z,67.73
2018-06-30T02:25:53.144Z,68.01
2018-06-30T02:27:03.254Z,67.25
2018-06-30T02:28:12.788Z,66.87
2018-06-30T02:29:22.855Z,66.87
2018-06-30T02:30:32.925Z,66.49
2018-06-30T02:31:42.734Z,66.59
2018-06-30T02:32:52.888Z,66.11
2018-06-30T02:34:02.943Z,66.87
2018-06-30T02:35:12.998Z,66.59
2018-06-30T02:36:23.058Z,66.11
2018-06-30T02:37:33.125Z,66.2
2018-06-30T02:38:43.238Z,66.02
2018-06-30T02:39:53.329Z,65.35
2018-06-30T02:41:03.396Z,66.02
2018-06-30T02:42:13.201Z,65.92
2018-06-30T02:43:23.263Z,66.68
2018-06-30T02:44:33.415Z,67.16
2018-06-30T02:45:43.490Z,66.97
2018-06-30T02:46:53.733Z,66.97
2018-06-30T02:48:02.996Z,66.78
2018-06-30T02:49:12.789Z,67.07
2018-06-30T02:50:22.901Z,67.44
2018-06-30T02:51:32.954Z,66.68
2018-06-30T02:52:43.014Z,66.2
2018-06-30T02:53:52.810Z,66.68
2018-06-30T02:55:02.892Z,67.16
2018-06-30T02:56:12.765Z,67.25
2018-06-30T02:57:22.844Z,67.25
2018-06-30T02:58:32.634Z,67.16
2018-06-30T02:59:42.159Z,66.78
2018-06-30T03:03:31.392Z,68.43
2018-06-30T03:04:41.463Z,68.4
2018-06-30T03:05:51.535Z,68.49
2018-06-30T03:07:01.593Z,69.44
2018-06-30T03:08:11.417Z,68.68
2018-06-30T03:09:21.545Z,68.9
2018-06-30T03:10:31.077Z,67.86
2018-06-30T03:11:40.929Z,67.1
2018-06-30T03:12:51.005Z,66.81
2018-06-30T03:14:00.801Z,66.62
2018-06-30T03:15:10.633Z,66.53
2018-06-30T03:16:20.695Z,67.38
2018-06-30T03:17:30.767Z,66.43
2018-06-30T03:18:40.567Z,65.95
2018-06-30T03:19:50.095Z,65.95
2018-06-30T03:20:59.663Z,66.05
2018-06-30T03:22:09.739Z,66.53
2018-06-30T03:23:19.528Z,65.86
2018-06-30T03:24:29.616Z,66.05
2018-06-30T03:25:39.706Z,66.05
2018-06-30T03:26:49.290Z,65.1
2018-06-30T03:27:59.356Z,65.29
2018-06-30T03:29:09.435Z,66.33
2018-06-30T03:30:19.532Z,66.24
2018-06-30T03:31:29.759Z,65.86
2018-06-30T03:32:39.923Z,65.29
2018-06-30T03:33:49.983Z,65.58
2018-06-30T03:35:00.060Z,66.24
2018-06-30T03:36:10.133Z,65.95
2018-06-30T03:37:19.934Z,66.72
2018-06-30T03:38:30.186Z,66.53
2018-06-30T03:39:40.279Z,66.72
2018-06-30T03:40:50.333Z,66.81
2018-06-30T03:42:00.382Z,66.62
2018-06-30T03:43:10.489Z,66.33
2018-06-30T03:44:20.614Z,66.81
2018-06-30T03:45:30.707Z,67.38
2018-06-30T03:46:40.516Z,67.29
2018-06-30T03:47:50.585Z,67.29
2018-06-30T03:49:00.653Z,67.1
2018-06-30T03:50:10.497Z,67.29
2018-06-30T03:51:20.317Z,68.71
2018-06-30T03:52:30.124Z,68.43
2018-06-30T03:53:40.180Z,69.19
2018-06-30T03:54:49.971Z,69.57
2018-06-30T03:56:00.086Z,69.85
2018-06-30T03:57:09.882Z,69.67
2018-06-30T03:58:19.680Z,69.48
2018-06-30T03:59:29.756Z,69.19
2018-06-30T04:00:39.564Z,69.67
2018-06-30T04:01:49.162Z,69.57
2018-06-30T04:02:59.257Z,69.85
2018-06-30T04:04:09.042Z,70.43
2018-06-30T04:05:18.841Z,69.57
2018-06-30T04:06:28.632Z,69.67
2018-06-30T04:07:38.474Z,69.38
2018-06-30T04:08:48.548Z,69.57
2018-06-30T04:09:58.613Z,69.67
2018-06-30T04:11:08.679Z,69.51
2018-06-30T04:12:18.748Z,69.32
2018-06-30T04:13:28.598Z,69.13
2018-06-30T04:14:38.394Z,68.46
2018-06-30T04:15:48.488Z,68.18
2018-06-30T04:16:58.285Z,67.61
2018-06-30T04:18:07.815Z,67.51
2018-06-30T04:19:17.393Z,67.32
2018-06-30T04:20:27.183Z,67.32
2018-06-30T04:21:36.720Z,67.32
2018-06-30T04:22:45.965Z,67.32
2018-06-30T04:23:56.036Z,66.75
2018-06-30T04:25:06.148Z,67.13
2018-06-30T04:26:15.945Z,67.22
2018-06-30T04:27:25.998Z,66.85
2018-06-30T04:28:36.066Z,66.56
2018-06-30T04:29:46.128Z,66.56
2018-06-30T04:30:55.719Z,66.46
2018-06-30T04:32:05.524Z,66.56
2018-06-30T04:33:15.334Z,66.37
2018-06-30T04:34:25.143Z,66.46
2018-06-30T04:35:34.668Z,66.37
2018-06-30T04:36:44.527Z,66.27
2018-06-30T04:37:54.305Z,66.69
2018-06-30T04:39:03.840Z,65.73
2018-06-30T04:40:13.634Z,65.23
2018-06-30T04:41:23.693Z,65.07
2018-06-30T04:42:33.805Z,64.78
2018-06-30T04:43:43.601Z,65.36
2018-06-30T04:44:53.121Z,64.97
2018-06-30T04:46:02.918Z,64.69
2018-06-30T04:47:12.186Z,64.87
2018-06-30T04:48:22.312Z,64.87
2018-06-30T04:49:32.111Z,64.78
2018-06-30T04:50:42.188Z,64.4
2018-06-30T04:51:51.988Z,64.78
2018-06-30T04:53:02.064Z,65.16
2018-06-30T04:54:11.655Z,65.55
2018-06-30T04:55:21.177Z,64.02
2018-06-30T04:56:30.970Z,63.92
2018-06-30T04:57:41.089Z,64.12
2018-06-30T04:58:50.971Z,63.83
2018-06-30T05:00:01.089Z,64.21
2018-06-30T05:01:10.879Z,64.69
2018-06-30T05:02:20.939Z,64.78
2018-06-30T05:03:30.993Z,64.12
2018-06-30T05:04:40.512Z,64.31
2018-06-30T05:05:50.366Z,63.64
2018-06-30T05:07:00.182Z,64.62
2018-06-30T05:08:09.697Z,64.24
2018-06-30T05:09:19.526Z,64.78
2018-06-30T05:10:29.596Z,64.72
2018-06-30T05:11:39.716Z,64.81
2018-06-30T05:12:49.383Z,64.81
2018-06-30T05:13:59.703Z,65
2018-06-30T05:15:09.499Z,65
2018-06-30T05:16:19.566Z,64.91
2018-06-30T05:17:29.683Z,64.24
2018-06-30T05:18:39.492Z,64.15
2018-06-30T05:19:49.556Z,64.15
2018-06-30T05:20:59.692Z,64.24
2018-06-30T05:22:09.491Z,64.24
2018-06-30T05:23:19.321Z,64.34
2018-06-30T05:24:28.854Z,64.34
2018-06-30T05:25:38.931Z,64.34
2018-06-30T05:26:48.751Z,64.24
2018-06-30T05:27:58.565Z,64.15
2018-06-30T05:29:08.412Z,63.67
2018-06-30T05:30:18.475Z,63.86
2018-06-30T05:31:28.536Z,63.39
2018-06-30T05:32:38.320Z,64.28
2018-06-30T05:33:48.112Z,64.18
2018-06-30T05:34:58.226Z,64.28
2018-06-30T05:36:08.023Z,64.85
2018-06-30T05:37:17.829Z,63.7
2018-06-30T05:38:27.903Z,63.13
2018-06-30T05:39:37.974Z,64.18
2018-06-30T05:40:48.139Z,63.51
2018-06-30T05:41:58.214Z,63.04
2018-06-30T05:43:08.288Z,61.8
2018-06-30T05:44:17.817Z,61.41
2018-06-30T05:45:27.347Z,61.8
2018-06-30T05:46:37.482Z,60.36
2018-06-30T05:47:47.536Z,60.75
2018-06-30T05:48:57.614Z,61.8
2018-06-30T05:50:07.672Z,61.89
2018-06-30T05:51:17.470Z,61.7
2018-06-30T05:52:27.592Z,61.13
2018-06-30T05:53:37.660Z,61.13
2018-06-30T05:54:47.462Z,60.46
2018-06-30T05:55:57.517Z,60.17
2018-06-30T05:57:07.590Z,60.36
2018-06-30T05:58:17.444Z,59.12
2018-06-30T05:59:27.375Z,58.84
2018-06-30T06:00:37.259Z,59.03
2018-06-30T06:01:47.331Z,58.65
2018-06-30T06:02:56.588Z,59.12
2018-06-30T06:04:06.689Z,59.12
2018-06-30T06:05:16.493Z,59.22
2018-06-30T06:06:26.266Z,59.22
2018-06-30T06:07:35.535Z,59.41
2018-06-30T06:08:45.107Z,59.41
2018-06-30T06:09:55.510Z,59.03
2018-06-30T06:11:05.226Z,59.03
2018-06-30T06:12:15.291Z,58.94
2018-06-30T06:13:25.365Z,59.31
2018-06-30T06:14:35.451Z,59.51
2018-06-30T06:15:45.298Z,60.17
2018-06-30T06:16:54.831Z,60.17
2018-06-30T06:18:04.374Z,59.41
2018-06-30T06:19:14.173Z,58.46
2018-06-30T06:20:23.977Z,58.26
2018-06-30T06:21:33.557Z,57.79
2018-06-30T06:22:43.363Z,58.55
2018-06-30T06:23:53.160Z,58.84
2018-06-30T06:25:02.696Z,58.65
2018-06-30T06:26:12.507Z,57.89
2018-06-30T06:27:22.410Z,57.63
2018-06-30T06:28:32.666Z,57.72
2018-06-30T06:29:42.479Z,57.63
2018-06-30T06:30:52.569Z,57.06
2018-06-30T06:32:02.641Z,56.93
2018-06-30T06:33:12.757Z,57.22
2018-06-30T06:34:22.822Z,57.12
2018-06-30T06:35:32.616Z,57.5
2018-06-30T06:37:01.696Z,57.79
2018-06-30T06:38:12.121Z,57.5
2018-06-30T06:39:22.206Z,57.12
2018-06-30T06:40:32.575Z,57.41
2018-06-30T06:41:43.064Z,57.31
2018-06-30T06:42:53.583Z,57.41
2018-06-30T06:44:03.174Z,56.93
2018-06-30T06:45:13.275Z,57.5
2018-06-30T06:46:23.096Z,56.36
2018-06-30T06:47:33.179Z,57.31
2018-06-30T06:48:42.975Z,57.6
2018-06-30T06:49:53.113Z,56.36
2018-06-30T06:51:02.754Z,57.03
2018-06-30T06:52:12.481Z,56.93
2018-06-30T06:53:22.018Z,56.55
2018-06-30T06:54:31.545Z,57.22
2018-06-30T06:55:41.396Z,57.31
2018-06-30T06:56:50.930Z,57.5
2018-06-30T06:58:00.740Z,57.98
2018-06-30T06:59:10.870Z,57.24
2018-06-30T07:00:20.679Z,56.96
2018-06-30T07:01:30.538Z,57.53
2018-06-30T07:02:40.144Z,57.24
2018-06-30T07:03:50.217Z,57.15
2018-06-30T07:05:00.314Z,57.63
2018-06-30T07:06:09.844Z,57.53
2018-06-30T07:07:19.699Z,57.06
2018-06-30T07:08:29.490Z,56.77
2018-06-30T07:09:39.003Z,57.06
2018-06-30T07:10:48.543Z,56.96
2018-06-30T07:11:58.615Z,56.48
2018-06-30T07:13:08.466Z,56.01
2018-06-30T07:14:17.982Z,56.96
2018-06-30T07:15:27.525Z,56.58
2018-06-30T07:16:36.791Z,56.32
2018-06-30T07:17:46.584Z,55.53
2018-06-30T07:18:56.709Z,56.32
2018-06-30T07:20:06.766Z,56.23
2018-06-30T07:21:16.828Z,55.84
2018-06-30T07:22:26.681Z,56.41
2018-06-30T07:23:36.846Z,54.99
2018-06-30T07:24:46.699Z,54.89
2018-06-30T07:25:56.237Z,55.84
2018-06-30T07:27:05.755Z,54.41
2018-06-30T07:28:15.548Z,54.15
2018-06-30T07:29:25.066Z,54.25
2018-06-30T07:30:35.231Z,54.34
2018-06-30T07:31:45.117Z,54.15
2018-06-30T07:32:54.372Z,55.01
2018-06-30T07:34:04.506Z,53.86
2018-06-30T07:35:14.295Z,53.49
2018-06-30T07:36:24.394Z,53.39
2018-06-30T07:37:34.625Z,52.62
2018-06-30T07:38:44.450Z,52.24
2018-06-30T07:39:54.510Z,51.67
2018-06-30T07:41:04.597Z,50.33
2018-06-30T07:42:14.437Z,50.24
2018-06-30T07:43:24.225Z,50.04
2018-06-30T07:44:34.292Z,50.43
2018-06-30T07:45:43.823Z,50.71
2018-06-30T07:46:53.366Z,50.04
2018-06-30T07:48:03.228Z,50.24
2018-06-30T07:49:13.032Z,50.74
2018-06-30T07:50:23.184Z,51.09
2018-06-30T07:51:32.880Z,50.74
2018-06-30T07:52:43.125Z,50.64
2018-06-30T07:53:53.246Z,50.84
2018-06-30T07:55:03.034Z,49.88
2018-06-30T07:56:13.422Z,50.35
2018-06-30T07:57:22.644Z,50.26
2018-06-30T07:58:32.455Z,49.3
2018-06-30T07:59:42.757Z,50.45
2018-06-30T08:00:52.553Z,49.4
2018-06-30T08:02:02.550Z,48.54
2018-06-30T08:03:12.313Z,47.68
2018-06-30T08:04:22.109Z,48.16
2018-06-30T08:05:32.218Z,48.07
2018-06-30T08:06:42.011Z,47.58
2018-06-30T08:07:52.036Z,46.53
2018-06-30T08:09:01.573Z,46.75
2018-06-30T08:10:11.650Z,46.08
2018-06-30T08:11:21.808Z,46.08
2018-06-30T08:12:31.885Z,46.56
2018-06-30T08:13:41.953Z,46.37
2018-06-30T08:14:52.116Z,45.79
2018-06-30T08:16:01.918Z,45.41
2018-06-30T08:17:11.790Z,45.7
2018-06-30T08:18:21.866Z,45.6
2018-06-30T08:19:31.938Z,46.27
2018-06-30T08:20:41.713Z,46.27
2018-06-30T08:21:51.773Z,45.22
2018-06-30T08:23:01.346Z,45.41
2018-06-30T08:24:11.150Z,45.53
2018-06-30T08:25:20.959Z,46.58
2018-06-30T08:26:30.751Z,46.01
2018-06-30T08:27:40.807Z,46.58
2018-06-30T08:28:50.935Z,46.1
2018-06-30T08:30:00.754Z,46.48
2018-06-30T08:31:10.569Z,46.2
2018-06-30T08:32:20.652Z,46.58
2018-06-30T08:33:30.455Z,46.2
2018-06-30T08:34:40.316Z,45.53
2018-06-30T08:35:50.118Z,45.17
2018-06-30T08:37:00.192Z,44.12
2018-06-30T08:38:09.985Z,44.98
2018-06-30T08:39:20.062Z,43.73
2018-06-30T08:40:29.895Z,45.36
2018-06-30T08:41:40.030Z,43.92
2018-06-30T08:42:49.836Z,43.83
2018-06-30T08:43:59.645Z,43.44
2018-06-30T08:45:09.468Z,43.06
2018-06-30T08:46:19.316Z,43.35
2018-06-30T08:47:29.393Z,45.26
2018-06-30T08:48:39.199Z,43.44
2018-06-30T08:49:49.003Z,43.16
2018-06-30T08:50:58.789Z,44.02
2018-06-30T08:52:08.694Z,45.17
2018-06-30T08:53:18.222Z,45.07
2018-06-30T08:54:28.038Z,44.12
2018-06-30T08:55:38.190Z,43.54
2018-06-30T08:56:48.620Z,44.12
2018-06-30T08:57:58.499Z,45.17
2018-06-30T08:59:08.040Z,46.31
2018-06-30T09:00:18.098Z,46.41
2018-06-30T09:01:27.898Z,45.17
2018-06-30T09:02:37.961Z,45.07
2018-06-30T09:03:47.828Z,44.62
2018-06-30T09:04:57.611Z,43.27
2018-06-30T09:06:07.160Z,43.56
2018-06-30T09:07:17.036Z,43.27
2018-06-30T09:08:26.835Z,43.37
2018-06-30T09:09:36.421Z,43.47
2018-06-30T09:10:46.605Z,44.33
2018-06-30T09:11:56.557Z,44.71
2018-06-30T09:13:07.097Z,44.9
2018-06-30T09:14:17.215Z,46.25
2018-06-30T09:15:26.787Z,46.62
2018-06-30T09:16:36.588Z,46.72
2018-06-30T09:17:46.651Z,46.53
2018-06-30T09:18:56.716Z,46.15
2018-06-30T09:20:06.769Z,46.44
2018-06-30T09:21:17.033Z,47.58
2018-06-30T09:22:26.818Z,45.98
2018-06-30T09:23:36.630Z,45.5
2018-06-30T09:24:46.714Z,46.26
2018-06-30T09:25:55.970Z,45.31
2018-06-30T09:27:06.123Z,45.69
2018-06-30T09:28:16.201Z,44.83
2018-06-30T09:29:25.741Z,45.21
2018-06-30T09:30:35.817Z,44.93
2018-06-30T09:31:45.614Z,44.54
2018-06-30T09:32:55.746Z,44.45
2018-06-30T09:34:05.544Z,44.35
2018-06-30T09:35:15.626Z,44.16
2018-06-30T09:36:25.443Z,45.31
2018-06-30T09:37:35.510Z,43.39
2018-06-30T09:38:45.094Z,41.86
2018-06-30T09:39:54.624Z,41
2018-06-30T09:41:04.688Z,41.57
2018-06-30T09:42:14.755Z,41.09
2018-06-30T09:43:24.011Z,41.11
2018-06-30T09:44:33.935Z,40.83
2018-06-30T09:45:43.877Z,40.06
2018-06-30T09:46:53.959Z,39.77
2018-06-30T09:48:04.047Z,40.44
2018-06-30T09:49:13.593Z,39.58
2018-06-30T09:50:23.730Z,38.43
2018-06-30T09:51:33.541Z,39.29
2018-06-30T09:52:43.053Z,38.81
2018-06-30T09:53:52.575Z,38.64
2018-06-30T09:55:02.103Z,39.22
2018-06-30T09:56:11.958Z,38.16
2018-06-30T09:57:21.822Z,38.45
2018-06-30T09:58:31.887Z,38.74
2018-06-30T09:59:41.665Z,38.54
2018-06-30T10:00:51.725Z,38.83
2018-06-30T10:02:01.299Z,38.93
2018-06-30T10:03:11.393Z,39.22
2018-06-30T10:04:21.203Z,39.41
2018-06-30T10:05:31.276Z,39.41
2018-06-30T10:06:41.352Z,38.74
2018-06-30T10:07:51.302Z,38.64
2018-06-30T10:09:01.170Z,38.95
2018-06-30T10:10:11.393Z,39.14
2018-06-30T10:11:21.473Z,40.58
2018-06-30T10:12:31.002Z,41.35
2018-06-30T10:13:41.281Z,41.73
2018-06-30T10:14:50.533Z,41.44
2018-06-30T10:16:00.327Z,41.83
2018-06-30T10:17:10.134Z,41.63
2018-06-30T10:18:20.208Z,42.21
2018-06-30T10:19:30.386Z,40.7
2018-06-30T10:20:40.165Z,39.54
2018-06-30T10:21:50.330Z,39.93
2018-06-30T10:23:00.445Z,38.96
2018-06-30T10:24:10.242Z,38.2
2018-06-30T10:25:20.370Z,39.16
2018-06-30T10:26:30.435Z,38.96
2018-06-30T10:27:40.521Z,39.16
2018-06-30T10:28:50.584Z,38.87
2018-06-30T10:30:00.391Z,38.29
2018-06-30T10:31:10.523Z,39.06
2018-06-30T10:32:20.807Z,39.35
2018-06-30T10:33:30.599Z,39.54
2018-06-30T10:34:40.686Z,38.87
2018-06-30T10:35:50.764Z,38.78
2018-06-30T10:37:00.895Z,38.2
2018-06-30T10:38:10.439Z,38.1
2018-06-30T10:39:20.531Z,36.66
2018-06-30T10:40:29.806Z,36.57
2018-06-30T10:41:39.893Z,36.97
2018-06-30T10:42:49.731Z,38.02
2018-06-30T10:43:59.538Z,38.32
2018-06-30T10:45:09.087Z,38.41
2018-06-30T10:46:18.640Z,38.02
2018-06-30T10:47:28.710Z,38.7
2018-06-30T10:48:38.844Z,37.45
2018-06-30T10:49:48.904Z,37.35
2018-06-30T10:50:58.977Z,37.85
2018-06-30T10:52:09.054Z,36.99
2018-06-30T10:53:19.101Z,38.24
2018-06-30T10:54:29.235Z,37.37
2018-06-30T10:55:39.042Z,37.47
2018-06-30T10:56:48.832Z,37.18
2018-06-30T10:57:58.626Z,36.8
2018-06-30T10:59:08.196Z,38.14
2018-06-30T11:00:18.570Z,36.22
2018-06-30T11:01:28.789Z,35.47
2018-06-30T11:02:38.847Z,35.28
2018-06-30T11:03:48.658Z,35.85
2018-06-30T11:04:58.244Z,34.12
2018-06-30T11:06:08.449Z,34.31
2018-06-30T11:07:18.261Z,33.45
2018-06-30T11:08:28.068Z,35.57
2018-06-30T11:09:38.138Z,35.76
2018-06-30T11:10:47.663Z,34.99
2018-06-30T11:11:57.600Z,33.54
2018-06-30T11:13:07.685Z,32.87
2018-06-30T11:14:17.748Z,33.07
2018-06-30T11:15:27.822Z,33.36
2018-06-30T11:16:37.682Z,33.07
2018-06-30T11:17:47.813Z,32.97
2018-06-30T11:18:57.350Z,31.72
2018-06-30T11:20:07.023Z,30.29
2018-06-30T11:21:17.439Z,30.1
2018-06-30T11:22:27.086Z,31.06
2018-06-30T11:23:37.103Z,31.35
2018-06-30T11:24:47.164Z,31.27
2018-06-30T11:25:57.006Z,31.35
2018-06-30T11:27:06.822Z,30.31
2018-06-30T11:28:16.893Z,29.54
2018-06-30T11:29:26.846Z,29.54
2018-06-30T11:30:37.360Z,29.93
2018-06-30T11:31:47.427Z,29.63
2018-06-30T11:32:57.231Z,29.63
2018-06-30T11:34:07.294Z,29.35
2018-06-30T11:35:17.146Z,30.21
2018-06-30T11:36:26.925Z,30.61
2018-06-30T11:37:36.990Z,30.05
2018-06-30T11:38:46.803Z,29.86
2018-06-30T11:39:56.592Z,30.16
2018-06-30T11:41:06.449Z,29.98
2018-06-30T11:42:16.251Z,29.61
2018-06-30T11:43:26.317Z,28.77
2018-06-30T11:44:36.148Z,27.92
2018-06-30T11:45:46.214Z,26.68
2018-06-30T11:46:56.355Z,25.84
2018-06-30T11:48:06.166Z,25.95
2018-06-30T11:49:15.992Z,25.59
2018-06-30T11:50:26.181Z,24.44
2018-06-30T11:51:36.561Z,24.85
2018-06-30T11:52:46.412Z,24.28
2018-06-30T11:53:56.224Z,23.9
2018-06-30T11:55:05.498Z,23.33
2018-06-30T11:56:15.600Z,22.19
2018-06-30T11:57:25.681Z,22.69
2018-06-30T11:58:35.287Z,21.62
2018-06-30T11:59:45.376Z,21.83
2018-06-30T12:00:55.179Z,20.96
2018-06-30T12:02:04.499Z,19.8
2018-06-30T12:03:14.883Z,19.82
2018-06-30T12:04:24.795Z,19.05
2018-06-30T12:05:34.889Z,19.26
2018-06-30T12:06:44.988Z,18.29
2018-06-30T12:07:54.526Z,17.41
2018-06-30T12:09:03.814Z,16.93
2018-06-30T12:10:13.699Z,16.53
2018-06-30T12:11:23.802Z,16.44
2018-06-30T12:12:33.331Z,17.22
2018-06-30T12:13:43.121Z,15.86
2018-06-30T12:14:53.191Z,15.67
2018-06-30T12:16:03.057Z,15.57
2018-06-30T12:17:12.873Z,15.57
2018-06-30T12:18:22.693Z,14.79
2018-06-30T12:19:32.517Z,15.18
2018-06-30T12:20:42.325Z,15.09
2018-06-30T12:21:52.232Z,15
2018-06-30T12:23:02.100Z,14.7
2018-06-30T12:24:11.931Z,14.9
2018-06-30T12:25:22.012Z,13.93
2018-06-30T12:26:32.136Z,13.75
2018-06-30T12:27:41.759Z,13.26
2018-06-30T12:28:51.568Z,13.07
2018-06-30T12:30:01.658Z,12.87
2018-06-30T12:31:11.219Z,13.46
2018-06-30T12:32:21.424Z,13.36
2018-06-30T12:33:31.870Z,13.17
2018-06-30T12:34:41.417Z,13.08
2018-06-30T12:35:50.966Z,13.08
2018-06-30T12:37:00.803Z,12.4
2018-06-30T12:38:10.354Z,12.01
2018-06-30T12:39:19.701Z,11.71
2018-06-30T12:40:29.802Z,11.12
2018-06-30T12:41:39.907Z,11.61
2018-06-30T12:42:49.728Z,11.43
2018-06-30T12:43:59.820Z,11.92
2018-06-30T12:45:09.700Z,11.44
2018-06-30T12:46:19.786Z,9.86
2018-06-30T12:47:29.899Z,10.75
2018-06-30T12:48:40.020Z,10.46
2018-06-30T12:49:49.834Z,10.65
2018-06-30T12:50:59.429Z,10.56
2018-06-30T12:52:09.531Z,10.56
2018-06-30T12:53:19.636Z,10.36
2018-06-30T12:54:29.775Z,9.87
2018-06-30T12:55:41.296Z,9.38
2018-06-30T12:56:51.456Z,9.97
2018-06-30T12:58:01.606Z,9.58
2018-06-30T12:59:11.697Z,9.78
2018-06-30T13:00:21.786Z,9.78
2018-06-30T13:01:31.871Z,10.18
2018-06-30T13:02:41.475Z,8.9
2018-06-30T13:03:51.729Z,8.31
2018-06-30T13:05:02.011Z,8.9
2018-06-30T13:06:11.845Z,9.3
2018-06-30T13:07:21.941Z,8.51
2018-06-30T13:08:32.099Z,8.51
2018-06-30T13:09:41.936Z,8.11
2018-06-30T13:10:52.021Z,8.51
2018-06-30T13:12:01.849Z,7.82
2018-06-30T13:13:11.933Z,8.61
2018-06-30T13:14:21.529Z,8.71
2018-06-30T13:15:31.354Z,8.51
2018-06-30T13:16:41.161Z,7.73
2018-06-30T13:17:50.457Z,7.82
2018-06-30T13:19:00.269Z,7.92
2018-06-30T13:20:10.135Z,7.73
2018-06-30T13:21:20.216Z,7.93
2018-06-30T13:22:30.328Z,7.43
2018-06-30T13:23:40.161Z,7.34
2018-06-30T13:24:49.719Z,7.73
2018-06-30T13:25:59.588Z,6.84
2018-06-30T13:27:09.132Z,6.54
2018-06-30T13:28:19.219Z,7.04
2018-06-30T13:29:29.300Z,7.24
2018-06-30T13:30:39.398Z,7.64
2018-06-30T13:31:49.541Z,6.35
2018-06-30T13:32:59.096Z,6.54
2018-06-30T13:34:08.654Z,6.84
2018-06-30T13:35:18.742Z,7.13
2018-06-30T13:36:28.571Z,6.74
2018-06-30T13:37:38.442Z,7.04
2018-06-30T13:38:48.253Z,7.83
2018-06-30T13:39:58.071Z,7.23
2018-06-30T13:41:07.628Z,7.04
2018-06-30T13:42:17.468Z,6.84
2018-06-30T13:43:27.103Z,7.44
2018-06-30T13:44:37.421Z,6.55
2018-06-30T13:45:47.305Z,6.74
2018-06-30T13:46:57.127Z,6.35
2018-06-30T13:48:06.687Z,6.55
2018-06-30T13:49:16.556Z,6.95
2018-06-30T13:50:26.369Z,6.85
2018-06-30T13:51:35.928Z,7.35
2018-06-30T13:52:45.942Z,6.56
2018-06-30T13:53:56.127Z,6.56
2018-06-30T13:55:06.001Z,6.56
2018-06-30T13:56:15.821Z,6.06
2018-06-30T13:57:25.381Z,5.87
2018-06-30T13:58:35.223Z,6.06
2018-06-30T13:59:45.070Z,6.46
2018-06-30T14:00:54.755Z,5.96
2018-06-30T14:02:04.438Z,6.76
2018-06-30T14:03:14.519Z,6.56
2018-06-30T14:04:24.352Z,6.76
2018-06-30T14:05:33.914Z,6.26
2018-06-30T14:06:44.056Z,6.26
2018-06-30T14:07:53.866Z,5.77
2018-06-30T14:09:03.690Z,6.37
2018-06-30T14:10:13.525Z,6.16
2018-06-30T14:11:23.344Z,5.87
2018-06-30T14:12:33.209Z,6.76
2018-06-30T14:13:43.020Z,5.66
2018-06-30T14:14:53.127Z,5.87
2018-06-30T14:16:02.964Z,5.87
2018-06-30T14:17:12.560Z,5.77
2018-06-30T14:18:22.245Z,6.38
2018-06-30T14:19:31.705Z,5.78
2018-06-30T14:20:41.519Z,5.38
2018-06-30T14:21:51.333Z,5.68
2018-06-30T14:23:01.469Z,5.28
2018-06-30T14:24:11.336Z,5.48
2018-06-30T14:25:21.169Z,5.38
2018-06-30T14:26:31.258Z,5.18
2018-06-30T14:27:41.360Z,5.68
2018-06-30T14:28:51.175Z,5.38
2018-06-30T14:30:01.043Z,5.38
2018-06-30T14:31:10.894Z,5.38
2018-06-30T14:32:20.998Z,5.58
2018-06-30T14:33:31.114Z,5.58
2018-06-30T14:34:41.215Z,5.88
2018-06-30T14:35:51.089Z,6.08
2018-06-30T14:37:01.178Z,6.18
2018-06-30T14:38:10.739Z,5.58
2018-06-30T14:39:20.845Z,5.29
2018-06-30T14:40:30.675Z,5.48
2018-06-30T14:41:40.830Z,5.38
2018-06-30T14:42:50.928Z,5.38
2018-06-30T14:44:01.034Z,5.38
2018-06-30T14:45:11.121Z,5.58
2018-06-30T14:46:21.230Z,5.08
2018-06-30T14:47:31.163Z,5.48
2018-06-30T14:48:40.998Z,5.08
2018-06-30T14:49:50.807Z,5.38
2018-06-30T14:51:00.635Z,5.49
2018-06-30T14:52:09.923Z,4.59
2018-06-30T14:53:19.802Z,4.69
2018-06-30T14:54:29.897Z,4.79
2018-06-30T14:55:39.733Z,4.99
2018-06-30T14:56:49.558Z,5.38
2018-06-30T14:57:59.653Z,5.48
2018-06-30T14:59:09.534Z,5.29
2018-06-30T15:00:18.833Z,5.48
2018-06-30T15:01:28.937Z,4.99
2018-06-30T15:02:38.776Z,5.78
2018-06-30T15:03:48.599Z,5.68
2018-06-30T15:04:58.731Z,5.29
2018-06-30T15:06:08.815Z,5.38
2018-06-30T15:07:18.964Z,5.59
2018-06-30T15:08:28.614Z,5.39
2018-06-30T15:09:38.485Z,5.49